Terminal Aerodrome Forecast
Issued by NWS

Home | Current Version | Previous Version | Text Only | Print | Product List | Glossary Off
Versions: 1 2 3 4 5 6 7 8 9 10 11 12 13 14 15 16 17 18 19 20 21

774
FTUS43 KABR 211140
TAFATY
TAF
KATY 211140Z 2112/2212 14011KT P6SM SKC
     FM211500 14016G26KT P6SM SCT200
     FM220600 16015KT P6SM BKN200 WS020/17040KT=

USA.gov is the U.S. government's official web portal to all federal, state and local government web resources and services.